Time;durP1;ratioP1;P1;durP2;ratioP2;P2;SDS_P1;SDS_P2;PMS_P1;PMS_P2;Temp;Humidity;BMP_temperature;BMP_pressure;BME280_temperature;BME280_humidity;BME280_pressure;Samples;Min_cycle;Max_cycle;Signal;HPM_P1;HPM_P2
2023/06/08 00:00:16;;;;;;;7.03;2.05;;;;;;;;;;4958427;28;20498;-69
2023/06/08 00:02:43;;;;;;;5.35;2.13;;;;;;;;;;4945389;28;20500;-68
2023/06/08 00:05:13;;;;;;;6.82;1.63;;;;;;;;;;4952231;28;20051;-68
2023/06/08 00:07:40;;;;;;;8.52;1.98;;;;;;;;;;4953086;28;20048;-70
2023/06/08 00:10:10;;;;;;;7.00;2.33;;;;;;;;;;4949724;28;20057;-68
2023/06/08 00:12:37;;;;;;;4.75;1.70;;;;;;;;;;4944663;28;20039;-68
2023/06/08 00:15:05;;;;;;;8.50;2.20;;;;;;;;;;4952353;28;20058;-67
2023/06/08 00:17:32;;;;;;;5.95;1.85;;;;;;;;;;4950300;28;20047;-67
2023/06/08 00:19:59;;;;;;;7.75;2.28;;;;;;;;;;4954151;28;20055;-67
2023/06/08 00:22:34;;;;;;;6.55;2.00;;;;;;;;;;4950830;28;20035;-67
2023/06/08 00:25:05;;;;;;;10.48;1.90;;;;;;;;;;4951286;28;20059;-67
2023/06/08 00:27:31;;;;;;;6.25;2.20;;;;;;;;;;4950744;28;20500;-68
2023/06/08 00:29:58;;;;;;;6.35;1.88;;;;;;;;;;4951449;28;20046;-64
2023/06/08 00:32:25;;;;;;;7.35;2.05;;;;;;;;;;4951620;28;20043;-69
2023/06/08 00:34:51;;;;;;;5.57;2.10;;;;;;;;;;4955877;28;20063;-67
2023/06/08 00:37:18;;;;;;;6.90;2.17;;;;;;;;;;4943626;28;20047;-68
2023/06/08 00:39:45;;;;;;;9.88;3.25;;;;;;;;;;4948885;28;20044;-68
2023/06/08 00:42:12;;;;;;;5.28;2.28;;;;;;;;;;4951051;28;20053;-68
2023/06/08 00:44:41;;;;;;;3.80;1.70;;;;;;;;;;4946794;28;21075;-67
2023/06/08 00:47:09;;;;;;;4.82;1.90;;;;;;;;;;4950679;28;20705;-69
2023/06/08 00:49:36;;;;;;;5.78;1.80;;;;;;;;;;4946530;28;20123;-69
2023/06/08 00:52:03;;;;;;;5.38;1.92;;;;;;;;;;4946786;28;20062;-69
2023/06/08 00:54:33;;;;;;;6.97;2.10;;;;;;;;;;4952605;28;20053;-69
2023/06/08 00:57:19;;;;;;;5.43;1.92;;;;;;;;;;4956674;28;20118;-69
2023/06/08 00:59:49;;;;;;;6.57;2.15;;;;;;;;;;4965911;28;20042;-69
2023/06/08 01:02:17;;;;;;;13.90;1.98;;;;;;;;;;4974428;28;20078;-68
2023/06/08 01:04:45;;;;;;;6.78;1.90;;;;;;;;;;4942091;28;20038;-69
2023/06/08 01:07:15;;;;;;;4.95;1.70;;;;;;;;;;4971123;28;20034;-70
2023/06/08 01:09:47;;;;;;;9.50;2.33;;;;;;;;;;4947528;28;20039;-68
2023/06/08 01:12:20;;;;;;;5.20;1.77;;;;;;;;;;4932470;28;20094;-65
2023/06/08 01:14:55;;;;;;;5.80;2.05;;;;;;;;;;4930028;28;20471;-70
2023/06/08 01:17:25;;;;;;;4.45;2.10;;;;;;;;;;4943549;28;20338;-67
2023/06/08 01:19:54;;;;;;;9.25;2.03;;;;;;;;;;4930730;28;20082;-68
2023/06/08 01:22:27;;;;;;;5.88;2.03;;;;;;;;;;4944697;28;20055;-67
2023/06/08 01:24:56;;;;;;;5.63;2.03;;;;;;;;;;4948537;28;20054;-68
2023/06/08 01:27:25;;;;;;;7.47;2.10;;;;;;;;;;4935660;28;20043;-67
2023/06/08 01:29:52;;;;;;;7.72;1.80;;;;;;;;;;4937929;28;20054;-70
2023/06/08 01:32:19;;;;;;;4.35;1.92;;;;;;;;;;4935269;28;20039;-71
2023/06/08 01:34:46;;;;;;;7.82;2.15;;;;;;;;;;4954096;28;20090;-68
2023/06/08 01:37:20;;;;;;;5.57;1.85;;;;;;;;;;4953177;28;20046;-68
2023/06/08 01:39:48;;;;;;;6.32;2.88;;;;;;;;;;4950724;28;20054;-69
2023/06/08 01:42:18;;;;;;;8.48;2.28;;;;;;;;;;4951716;28;20140;-68
2023/06/08 01:44:46;;;;;;;4.65;2.08;;;;;;;;;;4951107;28;20093;-69
2023/06/08 01:47:16;;;;;;;4.82;2.15;;;;;;;;;;4952677;28;20050;-67
2023/06/08 01:49:43;;;;;;;8.35;2.30;;;;;;;;;;4953064;28;20047;-69
2023/06/08 01:52:10;;;;;;;3.80;1.80;;;;;;;;;;4952846;28;20046;-69
2023/06/08 01:54:37;;;;;;;5.45;1.73;;;;;;;;;;4923644;28;20061;-69
2023/06/08 01:57:05;;;;;;;4.93;1.90;;;;;;;;;;4940231;28;20542;-69
2023/06/08 01:59:31;;;;;;;6.10;2.55;;;;;;;;;;4942227;28;21040;-69
2023/06/08 02:02:01;;;;;;;6.90;2.08;;;;;;;;;;4943036;28;20043;-69
2023/06/08 02:04:30;;;;;;;4.07;1.85;;;;;;;;;;4942507;28;20109;-68
2023/06/08 02:06:57;;;;;;;7.43;2.00;;;;;;;;;;4931598;28;20046;-71
2023/06/08 02:09:24;;;;;;;6.85;2.08;;;;;;;;;;4935207;28;20047;-68
2023/06/08 02:11:51;;;;;;;8.60;1.90;;;;;;;;;;4951187;28;20035;-69
2023/06/08 02:14:17;;;;;;;7.68;3.00;;;;;;;;;;4907829;29;20043;-69
2023/06/08 02:16:45;;;;;;;6.20;2.10;;;;;;;;;;4924607;28;20090;-68
2023/06/08 02:19:13;;;;;;;5.30;1.85;;;;;;;;;;4941834;28;20626;-68
2023/06/08 02:21:41;;;;;;;5.78;2.00;;;;;;;;;;4943094;28;20055;-69
2023/06/08 02:24:08;;;;;;;5.88;1.95;;;;;;;;;;4942698;28;20956;-68
2023/06/08 02:26:34;;;;;;;7.55;2.10;;;;;;;;;;4932494;28;20051;-68
2023/06/08 02:29:04;;;;;;;5.60;1.80;;;;;;;;;;4952860;28;20031;-66
2023/06/08 02:31:30;;;;;;;5.70;1.80;;;;;;;;;;4969479;28;20041;-67
2023/06/08 02:33:57;;;;;;;7.95;1.90;;;;;;;;;;4956101;28;20047;-68
2023/06/08 02:36:28;;;;;;;8.85;2.40;;;;;;;;;;4959819;28;20089;-68
2023/06/08 02:38:54;;;;;;;8.75;1.92;;;;;;;;;;4968799;28;20051;-67
2023/06/08 02:41:25;;;;;;;7.60;2.42;;;;;;;;;;4944472;28;20242;-68
2023/06/08 02:43:52;;;;;;;6.57;1.90;;;;;;;;;;4952182;28;20032;-67
2023/06/08 02:46:18;;;;;;;5.85;2.30;;;;;;;;;;4953530;28;20047;-67
2023/06/08 02:48:45;;;;;;;8.13;2.42;;;;;;;;;;4952344;28;20403;-66
2023/06/08 02:51:12;;;;;;;7.00;2.08;;;;;;;;;;4943418;28;20061;-65
2023/06/08 02:53:38;;;;;;;5.07;2.00;;;;;;;;;;4953710;28;21455;-68
2023/06/08 02:56:05;;;;;;;7.88;2.03;;;;;;;;;;4958439;28;20547;-67
2023/06/08 02:58:33;;;;;;;9.90;2.20;;;;;;;;;;4956280;28;20035;-67
2023/06/08 03:01:00;;;;;;;6.03;2.13;;;;;;;;;;4956988;28;20049;-68
2023/06/08 03:03:29;;;;;;;11.35;2.60;;;;;;;;;;4971275;28;20051;-68
2023/06/08 03:05:59;;;;;;;9.45;2.55;;;;;;;;;;4953803;28;20122;-67
2023/06/08 03:08:26;;;;;;;10.13;2.63;;;;;;;;;;4951680;28;20046;-66
2023/06/08 03:10:53;;;;;;;14.65;2.40;;;;;;;;;;4967652;28;20035;-68
2023/06/08 03:13:21;;;;;;;8.30;2.35;;;;;;;;;;4954518;28;20043;-67
2023/06/08 03:15:48;;;;;;;8.18;2.40;;;;;;;;;;4954598;28;20073;-68
2023/06/08 03:18:16;;;;;;;11.30;2.47;;;;;;;;;;4953719;28;20066;-68
2023/06/08 03:20:43;;;;;;;10.05;2.67;;;;;;;;;;4953360;28;20120;-67
2023/06/08 03:23:10;;;;;;;6.22;2.17;;;;;;;;;;4953842;28;20110;-65
2023/06/08 03:25:37;;;;;;;13.45;2.25;;;;;;;;;;4942968;28;20639;-68
2023/06/08 03:28:04;;;;;;;6.47;1.77;;;;;;;;;;4934874;28;20043;-67
2023/06/08 03:30:31;;;;;;;7.22;2.60;;;;;;;;;;4934373;28;20095;-69
2023/06/08 03:32:57;;;;;;;10.85;2.50;;;;;;;;;;4935941;28;20040;-65
2023/06/08 03:35:24;;;;;;;9.02;2.35;;;;;;;;;;4933356;28;20044;-67
2023/06/08 03:37:50;;;;;;;6.90;2.58;;;;;;;;;;4933372;28;20542;-66
2023/06/08 03:40:17;;;;;;;6.55;2.10;;;;;;;;;;4933133;28;20050;-66
2023/06/08 03:42:44;;;;;;;8.48;2.10;;;;;;;;;;4932821;28;20054;-65
2023/06/08 03:45:10;;;;;;;9.52;2.67;;;;;;;;;;4933189;28;20102;-64
2023/06/08 03:47:37;;;;;;;9.40;2.63;;;;;;;;;;4932027;28;20669;-67
2023/06/08 03:50:04;;;;;;;9.77;2.40;;;;;;;;;;4931337;28;20407;-66
2023/06/08 03:52:30;;;;;;;11.30;2.63;;;;;;;;;;4936259;28;20047;-66
2023/06/08 03:54:57;;;;;;;14.70;2.63;;;;;;;;;;4936313;28;21833;-65
2023/06/08 03:57:24;;;;;;;9.30;2.65;;;;;;;;;;4934728;28;20553;-65
2023/06/08 03:59:50;;;;;;;7.88;2.38;;;;;;;;;;4933824;28;20042;-66
2023/06/08 04:02:17;;;;;;;9.45;2.65;;;;;;;;;;4934860;28;20595;-66
2023/06/08 04:04:44;;;;;;;8.63;2.60;;;;;;;;;;4932758;28;20420;-65
2023/06/08 04:07:12;;;;;;;9.23;2.15;;;;;;;;;;4933763;28;20036;-65
2023/06/08 04:09:38;;;;;;;14.05;2.40;;;;;;;;;;4935198;28;20459;-64
2023/06/08 04:12:06;;;;;;;12.98;2.67;;;;;;;;;;4936379;28;20043;-66
2023/06/08 04:14:33;;;;;;;6.25;2.53;;;;;;;;;;4934184;28;20050;-66
2023/06/08 04:17:00;;;;;;;7.68;2.47;;;;;;;;;;4933301;28;20063;-66
2023/06/08 04:19:26;;;;;;;14.95;2.67;;;;;;;;;;4931322;28;20043;-65
2023/06/08 04:21:56;;;;;;;9.60;2.45;;;;;;;;;;4932063;28;20044;-65
2023/06/08 04:24:29;;;;;;;10.32;2.30;;;;;;;;;;4931511;28;20672;-66
2023/06/08 04:26:56;;;;;;;;;;;;;;;;;;4953194;28;21826;-67
2023/06/08 04:29:22;;;;;;;7.43;2.72;;;;;;;;;;4951399;28;19941;-66
2023/06/08 04:31:49;;;;;;;8.35;2.28;;;;;;;;;;4951684;28;20043;-66
2023/06/08 04:34:16;;;;;;;8.45;2.58;;;;;;;;;;4951278;28;20034;-65
2023/06/08 04:36:43;;;;;;;7.35;2.53;;;;;;;;;;4953189;28;20035;-65
2023/06/08 04:39:10;;;;;;;14.52;3.03;;;;;;;;;;4952832;28;20046;-68
2023/06/08 04:41:37;;;;;;;8.45;2.40;;;;;;;;;;4957168;28;20484;-63
2023/06/08 04:44:05;;;;;;;6.50;2.58;;;;;;;;;;4955651;28;20521;-68
2023/06/08 04:46:33;;;;;;;11.10;2.15;;;;;;;;;;4971748;28;20035;-65
2023/06/08 04:49:00;;;;;;;14.85;3.17;;;;;;;;;;4953183;28;20027;-65
2023/06/08 04:51:29;;;;;;;10.13;2.40;;;;;;;;;;4953689;28;20062;-64
2023/06/08 04:53:56;;;;;;;9.77;2.80;;;;;;;;;;4954396;28;20031;-65
2023/06/08 04:56:23;;;;;;;8.75;2.25;;;;;;;;;;4954752;28;20823;-63
2023/06/08 04:58:50;;;;;;;11.60;2.40;;;;;;;;;;4955761;28;20443;-63
2023/06/08 05:01:17;;;;;;;12.82;2.35;;;;;;;;;;4958064;28;20053;-64
2023/06/08 05:03:44;;;;;;;9.70;2.20;;;;;;;;;;4955164;28;20444;-64
2023/06/08 05:06:10;;;;;;;14.50;2.28;;;;;;;;;;4956361;28;20801;-62
2023/06/08 05:08:37;;;;;;;10.63;2.97;;;;;;;;;;4955967;28;20050;-64
2023/06/08 05:11:04;;;;;;;10.35;2.55;;;;;;;;;;4955272;28;20042;-65
2023/06/08 05:13:30;;;;;;;6.75;2.05;;;;;;;;;;4953965;28;21615;-64
2023/06/08 05:15:58;;;;;;;14.20;2.90;;;;;;;;;;4957870;28;20047;-64
2023/06/08 05:18:26;;;;;;;13.10;3.00;;;;;;;;;;4956159;28;20046;-64
2023/06/08 05:20:52;;;;;;;9.73;3.00;;;;;;;;;;4954167;28;20054;-63
2023/06/08 05:23:19;;;;;;;11.50;4.13;;;;;;;;;;4957305;28;20050;-65
2023/06/08 05:25:46;;;;;;;9.35;2.50;;;;;;;;;;4947299;28;20051;-66
2023/06/08 05:28:12;;;;;;;8.80;3.45;;;;;;;;;;4939477;28;20043;-64
2023/06/08 05:30:39;;;;;;;11.57;4.78;;;;;;;;;;4940305;28;20059;-63
2023/06/08 05:33:06;;;;;;;7.90;3.83;;;;;;;;;;4943634;28;20693;-63
2023/06/08 05:35:32;;;;;;;14.05;5.53;;;;;;;;;;4939023;28;20042;-63
2023/06/08 05:37:59;;;;;;;16.13;4.93;;;;;;;;;;4939732;28;20043;-64
2023/06/08 05:40:25;;;;;;;11.35;5.38;;;;;;;;;;4926056;28;20535;-63
2023/06/08 05:42:52;;;;;;;19.17;6.93;;;;;;;;;;4937123;28;20512;-62
2023/06/08 05:45:19;;;;;;;17.65;7.40;;;;;;;;;;4939175;28;20559;-62
2023/06/08 05:47:45;;;;;;;23.88;9.15;;;;;;;;;;4934746;28;20070;-64
2023/06/08 05:50:12;;;;;;;38.15;15.95;;;;;;;;;;4939833;28;20090;-62
2023/06/08 05:52:39;;;;;;;32.65;15.75;;;;;;;;;;4939200;28;20047;-64
2023/06/08 05:55:06;;;;;;;36.67;13.80;;;;;;;;;;4941625;28;20035;-62
2023/06/08 05:57:32;;;;;;;32.75;12.50;;;;;;;;;;4937397;28;20051;-64
2023/06/08 05:59:59;;;;;;;32.05;10.75;;;;;;;;;;4936927;28;20055;-64
2023/06/08 06:02:25;;;;;;;19.40;6.95;;;;;;;;;;4937627;28;20409;-65
2023/06/08 06:04:52;;;;;;;19.70;7.43;;;;;;;;;;4939459;28;20043;-64
2023/06/08 06:07:19;;;;;;;13.27;5.40;;;;;;;;;;4936154;28;20218;-65
2023/06/08 06:09:45;;;;;;;14.30;4.63;;;;;;;;;;4935572;28;20039;-67
2023/06/08 06:12:13;;;;;;;19.38;6.32;;;;;;;;;;4940161;28;20043;-63
2023/06/08 06:14:40;;;;;;;11.27;5.53;;;;;;;;;;4938987;28;20048;-64
2023/06/08 06:17:07;;;;;;;13.52;5.88;;;;;;;;;;4937918;28;20057;-65
2023/06/08 06:19:37;;;;;;;12.18;5.88;;;;;;;;;;4935504;28;20048;-63
2023/06/08 06:22:05;;;;;;;16.02;5.68;;;;;;;;;;4937184;28;20512;-64
2023/06/08 06:24:32;;;;;;;11.80;5.13;;;;;;;;;;4939228;28;20050;-65
2023/06/08 06:26:58;;;;;;;11.68;4.50;;;;;;;;;;4960980;28;20039;-64
2023/06/08 06:29:25;;;;;;;10.00;3.78;;;;;;;;;;4957195;28;20408;-64
2023/06/08 06:31:52;;;;;;;11.13;3.67;;;;;;;;;;4956730;28;20063;-65
2023/06/08 06:34:19;;;;;;;10.27;3.13;;;;;;;;;;4955149;28;20051;-69
2023/06/08 06:36:46;;;;;;;11.13;3.65;;;;;;;;;;4954898;28;20058;-63
2023/06/08 06:39:13;;;;;;;10.10;3.40;;;;;;;;;;4954920;28;20047;-64
2023/06/08 06:41:40;;;;;;;9.00;2.92;;;;;;;;;;4957938;28;20454;-64
2023/06/08 06:44:07;;;;;;;6.72;2.90;;;;;;;;;;4954596;28;20043;-64
2023/06/08 06:46:34;;;;;;;10.15;2.95;;;;;;;;;;4954492;28;20034;-62
2023/06/08 06:49:01;;;;;;;9.07;3.40;;;;;;;;;;4956788;28;20134;-64
2023/06/08 06:51:28;;;;;;;10.68;3.20;;;;;;;;;;4956812;28;20050;-64
2023/06/08 06:53:54;;;;;;;7.15;2.95;;;;;;;;;;4957227;28;20041;-63
2023/06/08 06:56:22;;;;;;;10.77;2.85;;;;;;;;;;4946653;28;20035;-64
2023/06/08 06:58:49;;;;;;;7.32;2.55;;;;;;;;;;4958360;28;20534;-64
2023/06/08 07:01:16;;;;;;;16.90;3.22;;;;;;;;;;4956747;28;20731;-65
2023/06/08 07:03:46;;;;;;;11.18;2.97;;;;;;;;;;4956162;28;20049;-65
2023/06/08 07:06:13;;;;;;;9.68;3.00;;;;;;;;;;4956763;28;20149;-65
2023/06/08 07:08:41;;;;;;;7.55;3.53;;;;;;;;;;4955331;28;20510;-65
2023/06/08 07:11:08;;;;;;;14.32;3.47;;;;;;;;;;4956801;28;20510;-64
2023/06/08 07:13:35;;;;;;;6.40;3.10;;;;;;;;;;4956478;28;20061;-64
2023/06/08 07:16:03;;;;;;;7.28;3.13;;;;;;;;;;4956728;28;20050;-65
2023/06/08 07:18:30;;;;;;;8.65;2.95;;;;;;;;;;4956271;28;20066;-63
2023/06/08 07:20:57;;;;;;;7.22;3.00;;;;;;;;;;4946090;28;20075;-64
2023/06/08 07:23:23;;;;;;;10.23;3.30;;;;;;;;;;4960641;28;20042;-65
2023/06/08 07:25:51;;;;;;;8.38;3.13;;;;;;;;;;4957429;28;20137;-64
2023/06/08 07:28:18;;;;;;;8.95;2.55;;;;;;;;;;4955401;28;20045;-64
2023/06/08 07:30:44;;;;;;;8.90;2.83;;;;;;;;;;4953326;28;20122;-65
2023/06/08 07:33:11;;;;;;;11.10;2.80;;;;;;;;;;4954954;28;20039;-64
2023/06/08 07:35:38;;;;;;;11.90;2.85;;;;;;;;;;4954191;28;20050;-65
2023/06/08 07:38:06;;;;;;;6.78;2.50;;;;;;;;;;4953836;28;20047;-64
2023/06/08 07:40:32;;;;;;;7.30;2.58;;;;;;;;;;4952473;28;20142;-65
2023/06/08 07:42:59;;;;;;;7.45;3.08;;;;;;;;;;4955002;28;20069;-64
2023/06/08 07:45:27;;;;;;;7.65;2.72;;;;;;;;;;4953039;28;20129;-64
2023/06/08 07:47:53;;;;;;;8.30;2.50;;;;;;;;;;4949512;28;20063;-61
2023/06/08 07:50:20;;;;;;;11.77;3.05;;;;;;;;;;4952481;28;20047;-65
2023/06/08 07:52:47;;;;;;;9.20;2.70;;;;;;;;;;4951159;28;20047;-65
2023/06/08 07:55:13;;;;;;;11.50;3.17;;;;;;;;;;4952242;28;20055;-65
2023/06/08 07:57:40;;;;;;;12.77;3.30;;;;;;;;;;4954154;28;20043;-65
2023/06/08 08:00:08;;;;;;;9.00;3.22;;;;;;;;;;4953080;28;20471;-64
2023/06/08 08:02:34;;;;;;;9.60;3.10;;;;;;;;;;4954127;28;20077;-63
2023/06/08 08:05:02;;;;;;;7.88;2.70;;;;;;;;;;4952937;28;21818;-65
2023/06/08 08:07:29;;;;;;;8.50;3.08;;;;;;;;;;4955230;28;20043;-62
2023/06/08 08:09:55;;;;;;;13.93;3.70;;;;;;;;;;4954134;28;20046;-64
2023/06/08 08:12:22;;;;;;;11.13;2.95;;;;;;;;;;4952639;28;20503;-64
2023/06/08 08:14:49;;;;;;;11.43;3.63;;;;;;;;;;4951073;28;20043;-65
2023/06/08 08:17:15;;;;;;;14.40;3.60;;;;;;;;;;4953654;28;20039;-66
2023/06/08 08:19:42;;;;;;;9.68;3.38;;;;;;;;;;4954535;28;20050;-65
2023/06/08 08:22:08;;;;;;;12.27;3.28;;;;;;;;;;4952592;28;20047;-64
2023/06/08 08:24:36;;;;;;;9.18;3.78;;;;;;;;;;4951836;28;20050;-65
2023/06/08 08:27:03;;;;;;;11.93;3.75;;;;;;;;;;4950813;28;20074;-64
2023/06/08 08:29:30;;;;;;;10.52;3.40;;;;;;;;;;4952782;28;20042;-65
2023/06/08 08:31:57;;;;;;;12.95;3.60;;;;;;;;;;4951844;28;20380;-63
2023/06/08 08:34:23;;;;;;;11.88;3.10;;;;;;;;;;4961383;28;20045;-64
2023/06/08 08:36:50;;;;;;;19.67;4.05;;;;;;;;;;4960060;28;20050;-64
2023/06/08 08:39:16;;;;;;;11.57;3.22;;;;;;;;;;4960835;28;20121;-65
2023/06/08 08:41:46;;;;;;;11.10;3.47;;;;;;;;;;4959881;28;20063;-63
2023/06/08 08:44:18;;;;;;;13.18;3.55;;;;;;;;;;4958805;28;20053;-64
2023/06/08 08:46:46;;;;;;;12.55;3.58;;;;;;;;;;4955689;28;20122;-63
2023/06/08 08:49:16;;;;;;;10.98;3.30;;;;;;;;;;4955408;28;20039;-63
2023/06/08 08:51:49;;;;;;;13.82;3.22;;;;;;;;;;4959736;28;20046;-62
2023/06/08 08:54:17;;;;;;;14.35;3.38;;;;;;;;;;4959254;28;21074;-60
2023/06/08 08:56:44;;;;;;;14.35;3.30;;;;;;;;;;4960176;28;20039;-63
2023/06/08 08:59:11;;;;;;;10.88;3.22;;;;;;;;;;4960538;28;20118;-64
2023/06/08 09:01:41;;;;;;;11.95;3.25;;;;;;;;;;4957458;28;20043;-63
2023/06/08 09:04:07;;;;;;;12.32;3.17;;;;;;;;;;4963657;28;20049;-61
2023/06/08 09:06:34;;;;;;;7.45;3.22;;;;;;;;;;4964101;28;21379;-62
2023/06/08 09:09:01;;;;;;;8.57;2.95;;;;;;;;;;4959425;28;20393;-63
2023/06/08 09:11:27;;;;;;;11.88;3.03;;;;;;;;;;4960964;28;20492;-61
2023/06/08 09:14:07;;;;;;;12.40;3.00;;;;;;;;;;4956571;28;20047;-62
2023/06/08 09:16:45;;;;;;;8.57;3.13;;;;;;;;;;4958014;28;20066;-62
2023/06/08 09:19:12;;;;;;;9.43;3.78;;;;;;;;;;4952985;28;20035;-61
2023/06/08 09:21:43;;;;;;;15.60;3.17;;;;;;;;;;4943979;28;21073;-63
2023/06/08 09:24:17;;;;;;;10.93;3.05;;;;;;;;;;4944922;28;20039;-63
2023/06/08 09:26:49;;;;;;;16.58;3.72;;;;;;;;;;4951980;28;20052;-62
2023/06/08 09:29:39;;;;;;;14.13;3.43;;;;;;;;;;4960015;28;20050;-64
2023/06/08 09:32:12;;;;;;;12.65;3.75;;;;;;;;;;4960160;28;20289;-64
2023/06/08 09:35:01;;;;;;;14.30;3.15;;;;;;;;;;4961504;28;20039;-62
2023/06/08 09:37:31;;;;;;;10.75;3.72;;;;;;;;;;4958709;28;20043;-62
2023/06/08 09:39:59;;;;;;;10.48;3.25;;;;;;;;;;4958759;28;20050;-60
2023/06/08 09:42:50;;;;;;;11.63;3.72;;;;;;;;;;4957084;28;20035;-62
2023/06/08 09:45:17;;;;;;;10.40;3.35;;;;;;;;;;4955393;28;20043;-62
2023/06/08 09:47:44;;;;;;;13.73;3.38;;;;;;;;;;4957497;28;20043;-63
2023/06/08 09:50:11;;;;;;;10.07;3.55;;;;;;;;;;4952373;28;20039;-62
2023/06/08 09:52:38;;;;;;;9.38;3.10;;;;;;;;;;4951453;28;20483;-61
2023/06/08 09:55:06;;;;;;;11.20;3.55;;;;;;;;;;4959218;28;20047;-61
2023/06/08 09:57:34;;;;;;;8.82;2.97;;;;;;;;;;4959416;28;20040;-62
2023/06/08 10:00:20;;;;;;;10.75;3.45;;;;;;;;;;4955071;28;20423;-61
2023/06/08 10:03:09;;;;;;;12.85;3.33;;;;;;;;;;4953665;28;20042;-62
2023/06/08 10:05:37;;;;;;;15.20;3.55;;;;;;;;;;4954798;28;20070;-62
2023/06/08 10:08:05;;;;;;;13.65;3.38;;;;;;;;;;4958033;28;20098;-62
2023/06/08 10:10:36;;;;;;;12.13;3.45;;;;;;;;;;4953118;28;20062;-62
2023/06/08 10:13:02;;;;;;;7.18;3.00;;;;;;;;;;4951648;28;20046;-62
2023/06/08 10:15:29;;;;;;;9.43;3.35;;;;;;;;;;4951079;28;20043;-62
2023/06/08 10:17:56;;;;;;;9.02;3.55;;;;;;;;;;4957849;28;20043;-62
2023/06/08 10:20:23;;;;;;;11.13;3.30;;;;;;;;;;4946915;28;20054;-62
2023/06/08 10:22:50;;;;;;;12.77;3.33;;;;;;;;;;4954872;28;20034;-62
2023/06/08 10:25:18;;;;;;;10.68;3.70;;;;;;;;;;4952178;28;20051;-63
2023/06/08 10:27:48;;;;;;;12.00;3.67;;;;;;;;;;4953480;28;21697;-63
2023/06/08 10:30:26;;;;;;;10.52;3.50;;;;;;;;;;4954267;28;20112;-61
2023/06/08 10:32:55;;;;;;;10.75;3.80;;;;;;;;;;4952788;28;20046;-62
2023/06/08 10:35:21;;;;;;;12.82;3.67;;;;;;;;;;4966682;28;20050;-60
2023/06/08 10:37:48;;;;;;;16.23;3.92;;;;;;;;;;4952730;28;21711;-63
2023/06/08 10:40:15;;;;;;;11.00;3.72;;;;;;;;;;4954328;28;20133;-63
2023/06/08 10:42:51;;;;;;;11.60;3.58;;;;;;;;;;4953760;28;20073;-62
2023/06/08 10:45:31;;;;;;;11.05;3.70;;;;;;;;;;4955152;28;20039;-63
2023/06/08 10:48:02;;;;;;;11.90;3.50;;;;;;;;;;4952751;28;20058;-62
2023/06/08 10:50:31;;;;;;;11.07;3.88;;;;;;;;;;4953189;28;20039;-62
2023/06/08 10:52:58;;;;;;;11.13;4.03;;;;;;;;;;4957768;28;20049;-64
2023/06/08 10:55:26;;;;;;;15.38;3.70;;;;;;;;;;4975977;28;20041;-62
2023/06/08 10:57:54;;;;;;;12.05;4.10;;;;;;;;;;4969050;28;20057;-61
2023/06/08 11:00:22;;;;;;;15.18;4.20;;;;;;;;;;4968101;28;20063;-63
2023/06/08 11:02:49;;;;;;;11.88;3.60;;;;;;;;;;4974506;28;20039;-62
2023/06/08 11:05:16;;;;;;;14.50;4.32;;;;;;;;;;4966608;28;20082;-63
2023/06/08 11:07:43;;;;;;;14.52;4.10;;;;;;;;;;4972229;28;20089;-60
2023/06/08 11:10:10;;;;;;;12.30;3.67;;;;;;;;;;4972039;28;20043;-62
2023/06/08 11:12:36;;;;;;;10.88;3.90;;;;;;;;;;4967025;28;20042;-62
2023/06/08 11:15:03;;;;;;;10.57;3.85;;;;;;;;;;4963924;28;20050;-60
2023/06/08 11:17:31;;;;;;;8.68;3.83;;;;;;;;;;4967709;28;20058;-63
2023/06/08 11:20:03;;;;;;;15.45;4.50;;;;;;;;;;4965678;28;20051;-62
2023/06/08 11:22:30;;;;;;;10.65;3.97;;;;;;;;;;4965814;28;20042;-61
2023/06/08 11:24:56;;;;;;;22.05;4.28;;;;;;;;;;4965555;28;20046;-62
2023/06/08 11:27:23;;;;;;;10.77;3.88;;;;;;;;;;4962140;28;20039;-62
2023/06/08 11:29:49;;;;;;;8.38;4.50;;;;;;;;;;4960380;28;20136;-61
2023/06/08 11:32:18;;;;;;;14.00;4.22;;;;;;;;;;4958820;28;20043;-61
2023/06/08 11:34:49;;;;;;;11.93;4.30;;;;;;;;;;4952820;28;20043;-60
2023/06/08 11:37:18;;;;;;;12.70;4.15;;;;;;;;;;4954473;28;20043;-61
2023/06/08 11:39:45;;;;;;;8.00;3.75;;;;;;;;;;4952926;28;20071;-58
2023/06/08 11:42:12;;;;;;;11.57;3.97;;;;;;;;;;4953073;28;20120;-61
2023/06/08 11:44:39;;;;;;;10.15;4.20;;;;;;;;;;4955659;28;22638;-62
2023/06/08 11:47:09;;;;;;;8.80;4.10;;;;;;;;;;4957064;28;20479;-61
2023/06/08 11:49:51;;;;;;;10.63;4.00;;;;;;;;;;4956844;28;20420;-61
2023/06/08 11:52:18;;;;;;;12.07;4.13;;;;;;;;;;4946679;28;20046;-61
2023/06/08 11:54:45;;;;;;;11.82;4.93;;;;;;;;;;4950559;28;20032;-60
2023/06/08 11:57:11;;;;;;;10.82;4.57;;;;;;;;;;4951442;28;20035;-61
2023/06/08 11:59:39;;;;;;;9.68;3.72;;;;;;;;;;4953105;28;20043;-60
2023/06/08 12:02:10;;;;;;;8.35;3.63;;;;;;;;;;4955935;28;20399;-61
2023/06/08 12:04:40;;;;;;;11.40;3.90;;;;;;;;;;4965415;28;20055;-62
2023/06/08 12:07:10;;;;;;;16.52;4.82;;;;;;;;;;4971718;28;20022;-62
2023/06/08 12:09:47;;;;;;;10.52;3.65;;;;;;;;;;4973852;28;20066;-63
2023/06/08 12:12:14;;;;;;;11.25;3.88;;;;;;;;;;4963267;28;20896;-62
2023/06/08 12:14:48;;;;;;;14.73;4.10;;;;;;;;;;4954000;28;20047;-60
2023/06/08 12:17:15;;;;;;;17.73;4.40;;;;;;;;;;4952963;28;20108;-60
2023/06/08 12:19:43;;;;;;;14.73;3.80;;;;;;;;;;4952405;28;20117;-61
2023/06/08 12:22:09;;;;;;;23.90;4.28;;;;;;;;;;4952280;28;20054;-60
2023/06/08 12:24:37;;;;;;;22.05;4.22;;;;;;;;;;4950844;28;20035;-61
2023/06/08 12:27:07;;;;;;;16.23;3.83;;;;;;;;;;4931947;28;20067;-63
2023/06/08 12:29:36;;;;;;;11.73;3.63;;;;;;;;;;4931820;28;20050;-62
2023/06/08 12:32:03;;;;;;;14.65;3.50;;;;;;;;;;4933741;28;20040;-63
2023/06/08 12:34:30;;;;;;;15.77;3.67;;;;;;;;;;4935546;28;20500;-63
2023/06/08 12:36:57;;;;;;;12.77;3.83;;;;;;;;;;4934303;28;20523;-63
2023/06/08 12:39:24;;;;;;;16.52;3.70;;;;;;;;;;4933601;28;20031;-61
2023/06/08 12:41:50;;;;;;;26.73;4.78;;;;;;;;;;4931621;28;20035;-64
2023/06/08 12:44:17;;;;;;;28.10;4.80;;;;;;;;;;4932425;28;20469;-61
2023/06/08 12:46:44;;;;;;;23.52;4.30;;;;;;;;;;4932872;28;20114;-61
2023/06/08 12:49:11;;;;;;;16.80;3.85;;;;;;;;;;4934042;28;20036;-62
2023/06/08 12:51:37;;;;;;;23.60;3.75;;;;;;;;;;4934049;28;20047;-61
2023/06/08 12:54:04;;;;;;;19.08;4.10;;;;;;;;;;4934520;28;20035;-63
2023/06/08 12:56:31;;;;;;;20.50;3.70;;;;;;;;;;4932280;28;20036;-61
2023/06/08 12:58:57;;;;;;;17.63;3.30;;;;;;;;;;4929621;28;20156;-62
2023/06/08 13:01:24;;;;;;;10.27;2.78;;;;;;;;;;4928336;28;20126;-63
2023/06/08 13:03:52;;;;;;;10.18;3.00;;;;;;;;;;4934852;28;20040;-63
2023/06/08 13:06:19;;;;;;;12.50;3.67;;;;;;;;;;4927754;28;20035;-66
2023/06/08 13:08:46;;;;;;;12.73;3.30;;;;;;;;;;4932403;28;20127;-62
2023/06/08 13:11:12;;;;;;;12.57;3.13;;;;;;;;;;4932057;28;20039;-64
2023/06/08 13:13:39;;;;;;;11.13;3.13;;;;;;;;;;4932170;28;20046;-64
2023/06/08 13:16:06;;;;;;;12.88;3.47;;;;;;;;;;4931439;28;20094;-62
2023/06/08 13:18:34;;;;;;;12.95;3.53;;;;;;;;;;4934007;28;22310;-63
2023/06/08 13:21:00;;;;;;;20.02;3.85;;;;;;;;;;4938209;28;20051;-63
2023/06/08 13:23:30;;;;;;;24.35;5.97;;;;;;;;;;4935777;28;20031;-60
2023/06/08 13:25:56;;;;;;;17.75;4.43;;;;;;;;;;4937877;28;20090;-64
2023/06/08 13:28:23;;;;;;;39.72;5.47;;;;;;;;;;4937244;28;20032;-63
2023/06/08 13:30:50;;;;;;;31.73;4.40;;;;;;;;;;4935741;28;20051;-63
2023/06/08 13:33:17;;;;;;;9.70;3.30;;;;;;;;;;4939311;28;20051;-62
2023/06/08 13:35:44;;;;;;;16.13;3.90;;;;;;;;;;4936534;28;20036;-62
2023/06/08 13:38:11;;;;;;;14.13;3.53;;;;;;;;;;4936133;28;20400;-62
2023/06/08 13:40:38;;;;;;;9.57;2.95;;;;;;;;;;4934760;28;20051;-63
2023/06/08 13:43:09;;;;;;;10.23;3.65;;;;;;;;;;4936151;28;20044;-64
2023/06/08 13:45:36;;;;;;;16.50;3.83;;;;;;;;;;4939890;28;20208;-63
2023/06/08 13:48:03;;;;;;;11.00;3.47;;;;;;;;;;4936721;28;20035;-64
2023/06/08 13:50:30;;;;;;;15.35;4.70;;;;;;;;;;4935567;28;20035;-64
2023/06/08 13:52:57;;;;;;;11.15;3.50;;;;;;;;;;4937988;28;20054;-64
2023/06/08 13:55:24;;;;;;;12.05;3.55;;;;;;;;;;4940689;28;20047;-62
2023/06/08 13:57:51;;;;;;;13.20;3.78;;;;;;;;;;4938641;28;20039;-64
2023/06/08 14:00:18;;;;;;;18.17;4.10;;;;;;;;;;4926887;28;20079;-64
2023/06/08 14:02:47;;;;;;;12.85;3.53;;;;;;;;;;4937630;28;20043;-64
2023/06/08 14:05:18;;;;;;;14.60;4.00;;;;;;;;;;4932114;28;20070;-61
2023/06/08 14:07:45;;;;;;;13.10;4.05;;;;;;;;;;4931778;28;20115;-63
2023/06/08 14:10:12;;;;;;;15.25;4.03;;;;;;;;;;4932399;28;20051;-63
2023/06/08 14:12:39;;;;;;;22.15;6.40;;;;;;;;;;4919028;28;20181;-64
2023/06/08 14:15:09;;;;;;;21.90;4.55;;;;;;;;;;4930953;28;21712;-63
2023/06/08 14:17:36;;;;;;;16.90;4.90;;;;;;;;;;4935650;28;20070;-65
2023/06/08 14:20:03;;;;;;;14.50;4.65;;;;;;;;;;4941061;28;20078;-65
2023/06/08 14:22:31;;;;;;;18.85;4.65;;;;;;;;;;4925898;28;20049;-64
2023/06/08 14:24:58;;;;;;;18.08;5.00;;;;;;;;;;4938704;28;20113;-63
2023/06/08 14:27:24;;;;;;;20.00;4.70;;;;;;;;;;4937303;28;21438;-65
2023/06/08 14:29:51;;;;;;;19.88;4.05;;;;;;;;;;4938677;28;20090;-67
2023/06/08 14:32:18;;;;;;;14.02;3.92;;;;;;;;;;4935155;28;20082;-65
2023/06/08 14:42:32;;;;;;;14.32;3.85;;;;;;;;;;4983506;23;20050;-63
2023/06/08 14:44:59;;;;;;;14.45;4.00;;;;;;;;;;4950749;28;20050;-67
2023/06/08 14:47:25;;;;;;;13.35;3.90;;;;;;;;;;4963532;28;20647;-67